createdAt,value
2018-05-04T00:01:44.207Z,7.40
2018-05-04T00:03:48.362Z,7.40
2018-05-04T00:05:52.781Z,7.60
2018-05-04T00:07:57.203Z,7.60
2018-05-04T00:10:01.639Z,7.60
2018-05-04T00:12:06.825Z,7.60
2018-05-04T00:14:11.254Z,7.60
2018-05-04T00:16:16.442Z,7.50
2018-05-04T00:18:20.582Z,7.50
2018-05-04T00:20:25.093Z,7.50
2018-05-04T00:22:29.531Z,7.50
2018-05-04T00:24:33.951Z,7.20
2018-05-04T00:26:38.366Z,7.30
2018-05-04T00:28:43.193Z,7.30
2018-05-04T00:30:47.610Z,7.10
2018-05-04T00:32:53.535Z,7.10
2018-05-04T00:34:57.999Z,7.10
2018-05-04T00:37:02.607Z,6.90
2018-05-04T00:39:06.694Z,6.70
2018-05-04T00:41:11.140Z,6.80
2018-05-04T00:43:15.556Z,6.70
2018-05-04T00:45:19.971Z,6.60
2018-05-04T00:47:24.386Z,6.70
2018-05-04T00:49:28.808Z,6.80
2018-05-04T00:51:33.258Z,6.80
2018-05-04T00:53:48.841Z,6.90
2018-05-04T00:55:52.987Z,6.70
2018-05-04T00:57:57.459Z,6.70
2018-05-04T01:00:01.907Z,6.70
2018-05-04T01:02:06.226Z,7.00
2018-05-04T01:04:10.870Z,7.30
2018-05-04T01:06:14.982Z,7.50
2018-05-04T01:08:19.894Z,7.30
2018-05-04T01:10:24.342Z,7.30
2018-05-04T01:12:29.526Z,7.00
2018-05-04T01:14:33.968Z,7.00
2018-05-04T01:16:38.719Z,6.80
2018-05-04T01:18:43.920Z,7.20
2018-05-04T01:20:48.378Z,7.20
2018-05-04T01:22:52.686Z,7.50
2018-05-04T01:24:57.899Z,7.10
2018-05-04T01:27:02.318Z,7.10
2018-05-04T01:29:06.734Z,6.70
2018-05-04T01:31:11.186Z,6.50
2018-05-04T01:33:16.459Z,6.30
2018-05-04T01:35:20.858Z,6.30
2018-05-04T01:37:25.286Z,6.20
2018-05-04T01:39:29.707Z,6.10
2018-05-04T01:41:34.228Z,6.40
2018-05-04T01:43:38.618Z,6.50
2018-05-04T01:45:43.059Z,6.80
2018-05-04T01:47:47.480Z,6.90
2018-05-04T01:49:52.132Z,6.30
2018-05-04T01:51:56.755Z,6.20
2018-05-04T01:54:01.174Z,5.90
2018-05-04T01:56:05.350Z,6.00
2018-05-04T01:58:09.738Z,6.20
2018-05-04T02:00:13.873Z,6.50
2018-05-04T02:02:18.310Z,6.60
2018-05-04T02:04:22.727Z,6.80
2018-05-04T02:06:27.179Z,6.90
2018-05-04T02:08:32.361Z,6.90
2018-05-04T02:10:36.774Z,6.90
2018-05-04T02:12:41.235Z,6.70
2018-05-04T02:14:45.654Z,6.60
2018-05-04T02:16:50.893Z,6.30
2018-05-04T02:18:56.097Z,5.80
2018-05-04T02:21:00.517Z,5.80
2018-05-04T02:23:04.945Z,5.70
2018-05-04T02:25:09.391Z,5.40
2018-05-04T02:27:14.578Z,5.50
2018-05-04T02:29:18.994Z,5.40
2018-05-04T02:31:23.465Z,5.60
2018-05-04T02:33:27.878Z,5.60
2018-05-04T02:35:32.303Z,5.50
2018-05-04T02:37:36.755Z,5.90
2018-05-04T02:39:41.370Z,5.80
2018-05-04T02:41:45.790Z,5.30
2018-05-04T02:43:50.638Z,5.10
2018-05-04T02:45:55.963Z,5.10
2018-05-04T02:48:00.378Z,5.20
2018-05-04T02:50:04.483Z,5.60
2018-05-04T02:52:08.906Z,5.90
2018-05-04T02:54:13.327Z,6.10
2018-05-04T02:56:17.764Z,5.90
2018-05-04T02:58:22.371Z,5.90
2018-05-04T03:00:27.567Z,5.90
2018-05-04T03:02:32.203Z,5.90
2018-05-04T03:04:36.615Z,5.80
2018-05-04T03:06:41.028Z,5.80
2018-05-04T03:08:45.450Z,5.90
2018-05-04T03:10:49.870Z,5.50
2018-05-04T03:12:55.135Z,5.50
2018-05-04T03:14:59.564Z,5.60
2018-05-04T03:17:04.003Z,5.40
2018-05-04T03:19:09.186Z,5.30
2018-05-04T03:21:13.642Z,5.30
2018-05-04T03:23:17.825Z,5.40
2018-05-04T03:25:22.251Z,5.40
2018-05-04T03:27:26.670Z,5.40
2018-05-04T03:29:31.106Z,5.50
2018-05-04T03:31:36.285Z,5.60
2018-05-04T03:33:40.709Z,5.60
2018-05-04T03:35:45.759Z,5.60
2018-05-04T03:37:50.253Z,5.70
2018-05-04T03:39:56.265Z,5.40
2018-05-04T03:42:01.476Z,5.60
2018-05-04T03:44:05.924Z,5.60
2018-05-04T03:46:11.307Z,5.50
2018-05-04T03:48:15.812Z,5.50
2018-05-04T03:50:20.974Z,5.60
2018-05-04T03:52:25.394Z,5.60
2018-05-04T03:54:29.473Z,5.60
2018-05-04T03:56:33.980Z,5.60
2018-05-04T03:58:49.791Z,5.60
2018-05-04T04:01:05.238Z,5.60
2018-05-04T04:03:20.699Z,5.50
2018-05-04T04:05:24.834Z,5.50
2018-05-04T04:07:29.285Z,5.40
2018-05-04T04:09:33.701Z,5.50
2018-05-04T04:11:38.135Z,5.60
2018-05-04T04:13:43.421Z,5.70
2018-05-04T04:15:48.580Z,5.60
2018-05-04T04:17:53.247Z,5.60
2018-05-04T04:19:58.721Z,5.80
2018-05-04T04:22:03.114Z,5.80
2018-05-04T04:24:07.544Z,5.80
2018-05-04T04:26:11.966Z,5.90
2018-05-04T04:28:16.416Z,5.90
2018-05-04T04:30:21.003Z,5.90
2018-05-04T04:32:25.442Z,6.00
2018-05-04T04:34:29.634Z,6.00
2018-05-04T04:36:34.047Z,6.20
2018-05-04T04:38:38.490Z,6.10
2018-05-04T04:40:42.909Z,6.00
2018-05-04T04:42:47.318Z,6.10
2018-05-04T04:44:51.772Z,6.20
2018-05-04T04:46:56.950Z,6.30
2018-05-04T04:49:01.379Z,6.30
2018-05-04T04:51:06.016Z,6.30
2018-05-04T04:53:10.789Z,6.40
2018-05-04T04:55:16.061Z,6.50
2018-05-04T04:57:20.491Z,6.50
2018-05-04T04:59:24.906Z,6.50
2018-05-04T05:01:29.322Z,6.60
2018-05-04T05:03:33.753Z,6.60
2018-05-04T05:05:38.166Z,6.70
2018-05-04T05:07:42.606Z,6.60
2018-05-04T05:09:47.010Z,6.70
2018-05-04T05:11:51.489Z,6.70
2018-05-04T05:13:56.102Z,6.80
2018-05-04T05:16:00.535Z,6.90
2018-05-04T05:18:04.326Z,6.90
2018-05-04T05:20:08.759Z,7.00
2018-05-04T05:22:13.176Z,7.10
2018-05-04T05:24:17.630Z,7.10
2018-05-04T05:26:22.838Z,7.20
2018-05-04T05:28:27.286Z,7.20
2018-05-04T05:30:32.478Z,7.20
2018-05-04T05:32:36.906Z,7.20
2018-05-04T05:34:41.323Z,7.30
2018-05-04T05:36:45.766Z,7.30
2018-05-04T05:38:50.975Z,7.50
2018-05-04T05:40:55.399Z,7.40
2018-05-04T05:42:59.843Z,7.60
2018-05-04T05:45:04.362Z,7.70
2018-05-04T05:47:08.509Z,7.70
2018-05-04T05:49:12.941Z,7.70
2018-05-04T05:51:17.382Z,7.70
2018-05-04T05:53:22.581Z,7.80
2018-05-04T05:55:27.043Z,7.80
2018-05-04T05:57:31.469Z,7.90
2018-05-04T05:59:35.899Z,8.00
2018-05-04T06:01:40.323Z,8.10
2018-05-04T06:03:44.797Z,8.20
2018-05-04T06:05:49.218Z,8.20
2018-05-04T06:07:53.637Z,8.20
2018-05-04T06:09:58.085Z,8.30
2018-05-04T06:12:02.498Z,8.40
2018-05-04T06:14:07.118Z,8.50
2018-05-04T06:16:11.498Z,8.60
2018-05-04T06:18:15.922Z,8.60
2018-05-04T06:20:20.347Z,8.80
2018-05-04T06:22:25.859Z,8.90
2018-05-04T06:24:30.783Z,8.90
2018-05-04T06:26:35.182Z,8.90
2018-05-04T06:28:39.699Z,9.00
2018-05-04T06:30:44.319Z,9.00
2018-05-04T06:32:48.738Z,9.20
2018-05-04T06:34:53.205Z,9.20
2018-05-04T06:36:58.398Z,9.40
2018-05-04T06:39:02.583Z,9.30
2018-05-04T06:41:06.735Z,9.40
2018-05-04T06:43:11.151Z,9.50
2018-05-04T06:45:16.090Z,9.60
2018-05-04T06:47:20.502Z,9.80
2018-05-04T06:49:24.921Z,9.90
2018-05-04T06:51:29.354Z,10.00
2018-05-04T06:53:34.542Z,10.30
2018-05-04T06:55:39.161Z,10.20
2018-05-04T06:57:43.614Z,10.30
2018-05-04T06:59:48.104Z,10.30
2018-05-04T07:01:52.681Z,10.40
2018-05-04T07:03:57.133Z,10.40
2018-05-04T07:06:01.653Z,10.40
2018-05-04T07:08:06.091Z,10.40
2018-05-04T07:10:10.514Z,10.40
2018-05-04T07:12:15.274Z,10.50
2018-05-04T07:14:20.462Z,10.60
2018-05-04T07:16:24.883Z,10.60
2018-05-04T07:18:29.324Z,10.70
2018-05-04T07:20:34.517Z,10.80
2018-05-04T07:22:38.954Z,10.70
2018-05-04T07:24:43.779Z,10.80
2018-05-04T07:26:47.973Z,11.00
2018-05-04T07:28:52.394Z,11.00
2018-05-04T07:30:57.030Z,11.10
2018-05-04T07:33:01.450Z,11.20
2018-05-04T07:35:05.876Z,11.20
2018-05-04T07:37:10.415Z,11.20
2018-05-04T07:39:15.623Z,11.30
2018-05-04T07:41:20.110Z,11.30
2018-05-04T07:43:25.720Z,11.50
2018-05-04T07:45:30.905Z,11.60
2018-05-04T07:47:35.330Z,11.50
2018-05-04T07:49:39.776Z,11.70
2018-05-04T07:51:44.998Z,11.90
2018-05-04T07:53:49.098Z,11.90
2018-05-04T07:55:54.435Z,12.20
2018-05-04T07:57:59.064Z,12.20
2018-05-04T08:00:03.201Z,12.10
2018-05-04T08:02:07.727Z,12.10
2018-05-04T08:04:13.146Z,12.30
2018-05-04T08:06:18.359Z,12.40
2018-05-04T08:08:22.806Z,12.40
2018-05-04T08:10:28.186Z,12.70
2018-05-04T08:12:32.611Z,12.70
2018-05-04T08:14:37.039Z,12.80
2018-05-04T08:16:41.481Z,12.90
2018-05-04T08:18:46.883Z,12.90
2018-05-04T08:20:51.319Z,12.90
2018-05-04T08:22:56.142Z,13.10
2018-05-04T08:25:00.562Z,13.30
2018-05-04T08:27:04.991Z,13.20
2018-05-04T08:29:10.202Z,13.10
2018-05-04T08:31:14.630Z,13.10
2018-05-04T08:33:19.062Z,13.10
2018-05-04T08:35:24.321Z,13.10
2018-05-04T08:37:29.699Z,13.10
2018-05-04T08:39:34.134Z,13.10
2018-05-04T08:41:38.758Z,12.70
2018-05-04T08:43:43.190Z,12.70
2018-05-04T08:45:48.381Z,12.60
2018-05-04T08:47:52.855Z,12.60
2018-05-04T08:49:58.034Z,12.40
2018-05-04T08:52:02.641Z,12.40
2018-05-04T08:54:07.179Z,12.30
2018-05-04T08:56:11.567Z,12.30
2018-05-04T08:58:15.994Z,12.20
2018-05-04T09:00:20.430Z,12.10
2018-05-04T09:02:24.866Z,12.20
2018-05-04T09:04:30.091Z,12.10
2018-05-04T09:06:34.532Z,12.10
2018-05-04T09:08:38.958Z,12.10
2018-05-04T09:10:44.145Z,12.20
2018-05-04T09:12:48.628Z,12.20
2018-05-04T09:14:53.423Z,12.20
2018-05-04T09:16:57.862Z,12.30
2018-05-04T09:19:03.065Z,12.50
2018-05-04T09:21:07.514Z,12.50
2018-05-04T09:23:12.702Z,12.60
2018-05-04T09:25:17.139Z,12.60
2018-05-04T09:27:21.784Z,12.70
2018-05-04T09:29:27.042Z,12.60
2018-05-04T09:31:31.449Z,12.60
2018-05-04T09:33:35.879Z,12.70
2018-05-04T09:35:40.226Z,12.80
2018-05-04T09:37:44.351Z,12.80
2018-05-04T09:39:48.966Z,12.90
2018-05-04T09:41:53.396Z,12.90
2018-05-04T09:43:58.030Z,12.90
2018-05-04T09:46:03.363Z,13.00
2018-05-04T09:48:07.928Z,12.90
2018-05-04T09:50:12.370Z,12.90
2018-05-04T09:52:16.806Z,12.90
2018-05-04T09:54:21.250Z,13.10
2018-05-04T09:56:26.442Z,13.20
2018-05-04T09:58:30.919Z,13.20
2018-05-04T10:00:36.111Z,13.40
2018-05-04T10:02:40.547Z,13.40
2018-05-04T10:04:45.742Z,13.40
2018-05-04T10:06:50.387Z,13.40
2018-05-04T10:08:54.813Z,13.20
2018-05-04T10:11:00.017Z,13.30
2018-05-04T10:13:04.346Z,13.30
2018-05-04T10:15:08.782Z,13.40
2018-05-04T10:17:13.994Z,13.50
2018-05-04T10:19:18.621Z,13.50
2018-05-04T10:21:23.076Z,13.60
2018-05-04T10:23:28.470Z,13.70
2018-05-04T10:25:32.906Z,13.70
2018-05-04T10:27:37.351Z,13.80
2018-05-04T10:29:41.807Z,13.80
2018-05-04T10:31:46.270Z,13.80
2018-05-04T10:33:51.471Z,13.80
2018-05-04T10:35:55.919Z,13.70
2018-05-04T10:38:00.561Z,13.80
2018-05-04T10:40:05.825Z,13.90
2018-05-04T10:42:10.217Z,13.80
2018-05-04T10:44:14.675Z,13.90
2018-05-04T10:46:19.095Z,14.00
2018-05-04T10:48:23.290Z,14.20
2018-05-04T10:50:27.502Z,14.20
2018-05-04T10:52:31.936Z,14.20
2018-05-04T10:54:36.366Z,14.10
2018-05-04T10:56:40.773Z,14.20
2018-05-04T10:58:45.198Z,14.20
2018-05-04T11:00:49.658Z,14.20
2018-05-04T11:02:54.082Z,14.30
2018-05-04T11:04:58.510Z,14.20
2018-05-04T11:07:02.945Z,14.10
2018-05-04T11:09:07.142Z,14.10
2018-05-04T11:11:11.575Z,14.20
2018-05-04T11:13:15.756Z,14.20
2018-05-04T11:15:20.175Z,14.10
2018-05-04T11:17:24.622Z,14.30
2018-05-04T11:19:29.117Z,14.40
2018-05-04T11:21:34.462Z,14.80
2018-05-04T11:23:38.898Z,14.80
2018-05-04T11:25:45.143Z,15.10
2018-05-04T11:27:49.571Z,15.10
2018-05-04T11:29:54.010Z,15.60
2018-05-04T11:31:58.441Z,16.20
2018-05-04T11:34:03.514Z,17.40
2018-05-04T11:36:07.710Z,17.30
2018-05-04T11:38:12.134Z,17.70
2018-05-04T11:40:16.612Z,18.40
2018-05-04T11:42:20.974Z,19.10
2018-05-04T11:44:25.730Z,19.90
2018-05-04T11:46:30.154Z,20.40
2018-05-04T11:48:35.938Z,20.20
2018-05-04T11:50:41.368Z,20.20
2018-05-04T11:52:46.560Z,19.60
2018-05-04T11:54:51.025Z,19.60
2018-05-04T11:56:55.479Z,19.80
2018-05-04T11:59:01.266Z,20.50
2018-05-04T12:01:05.965Z,20.50
2018-05-04T12:03:10.668Z,20.70
2018-05-04T12:05:15.367Z,21.00
2018-05-04T12:07:20.359Z,21.40
2018-05-04T12:09:24.786Z,21.50
2018-05-04T12:11:29.783Z,21.60
2018-05-04T12:13:34.165Z,21.80
2018-05-04T12:15:38.288Z,21.80
2018-05-04T12:17:42.752Z,21.40
2018-05-04T12:19:47.233Z,21.50
2018-05-04T12:21:51.617Z,22.00
2018-05-04T12:23:56.065Z,22.80
2018-05-04T12:26:00.511Z,22.30
2018-05-04T12:28:04.945Z,21.80
2018-05-04T12:30:10.158Z,22.80
2018-05-04T12:32:14.583Z,22.70
2018-05-04T12:34:19.006Z,23.20
2018-05-04T12:36:23.450Z,22.60
2018-05-04T12:38:27.894Z,22.40
2018-05-04T12:40:32.494Z,22.50
2018-05-04T12:42:36.922Z,22.80
2018-05-04T12:44:41.898Z,23.20
2018-05-04T12:46:46.324Z,23.60
2018-05-04T12:48:50.755Z,23.60
2018-05-04T12:50:55.942Z,22.60
2018-05-04T12:53:00.391Z,22.60
2018-05-04T12:55:04.825Z,22.90
2018-05-04T12:57:10.011Z,22.70
2018-05-04T12:59:14.439Z,22.70
2018-05-04T13:01:18.886Z,22.80
2018-05-04T13:03:24.083Z,24.30
2018-05-04T13:05:28.507Z,24.30
2018-05-04T13:07:32.962Z,24.20
2018-05-04T13:09:38.155Z,23.90
2018-05-04T13:11:42.574Z,23.80
2018-05-04T13:13:46.806Z,23.40
2018-05-04T13:15:51.222Z,23.40
2018-05-04T13:17:55.647Z,23.40
2018-05-04T13:20:01.056Z,23.90
2018-05-04T13:22:05.478Z,23.80
2018-05-04T13:24:09.902Z,24.20
2018-05-04T13:26:14.346Z,24.60
2018-05-04T13:28:19.538Z,24.40
2018-05-04T13:30:25.282Z,25.40
2018-05-04T13:32:29.719Z,25.40
2018-05-04T13:34:34.334Z,25.50
2018-05-04T13:36:38.786Z,25.20
2018-05-04T13:38:43.969Z,26.00
2018-05-04T13:40:48.602Z,25.90
2018-05-04T13:42:52.841Z,25.80
2018-05-04T13:44:58.033Z,26.10
2018-05-04T13:47:02.469Z,26.00
2018-05-04T13:49:06.893Z,25.20
2018-05-04T13:51:11.414Z,23.30
2018-05-04T13:53:16.945Z,22.60
2018-05-04T13:55:21.913Z,22.60
2018-05-04T13:57:26.897Z,22.60
2018-05-04T13:59:32.667Z,21.30
2018-05-04T14:01:37.413Z,21.30
2018-05-04T14:03:42.402Z,21.40
2018-05-04T14:05:47.930Z,21.90
2018-05-04T14:07:53.674Z,22.10
2018-05-04T14:09:59.418Z,22.20
2018-05-04T14:12:04.410Z,22.20
2018-05-04T14:14:09.395Z,23.40
2018-05-04T14:16:15.458Z,24.40
2018-05-04T14:18:19.890Z,24.40
2018-05-04T14:20:24.855Z,23.60
2018-05-04T14:22:29.850Z,22.90
2018-05-04T14:24:35.022Z,23.00
2018-05-04T14:26:40.033Z,23.10
2018-05-04T14:28:45.223Z,24.60
2018-05-04T14:30:51.138Z,24.50
2018-05-04T14:32:55.342Z,24.80
2018-05-04T14:35:00.350Z,22.90
2018-05-04T14:37:06.267Z,21.20
2018-05-04T14:39:10.694Z,21.20
2018-05-04T14:41:15.115Z,21.90
2018-05-04T14:43:19.598Z,21.80
2018-05-04T14:45:24.006Z,22.20
2018-05-04T14:47:28.538Z,23.20
2018-05-04T14:49:33.712Z,24.50
2018-05-04T14:51:38.135Z,24.50
2018-05-04T14:53:42.554Z,25.10
2018-05-04T14:55:46.749Z,25.30
2018-05-04T14:57:52.891Z,26.30
2018-05-04T14:59:57.301Z,26.30
2018-05-04T15:02:02.832Z,26.00
2018-05-04T15:04:07.820Z,26.00
2018-05-04T15:06:12.999Z,25.40
2018-05-04T15:08:18.762Z,26.30
2018-05-04T15:10:24.528Z,26.70
2018-05-04T15:12:28.941Z,26.60
2018-05-04T15:14:33.926Z,27.50
2018-05-04T15:16:38.689Z,26.40
2018-05-04T15:18:43.130Z,24.00
2018-05-04T15:20:48.330Z,23.10
2018-05-04T15:22:52.750Z,23.10
2018-05-04T15:24:57.210Z,23.80
2018-05-04T15:27:02.604Z,24.90
2018-05-04T15:29:07.021Z,24.90
2018-05-04T15:31:11.464Z,26.00
2018-05-04T15:33:15.886Z,26.80
2018-05-04T15:35:21.072Z,25.40
2018-05-04T15:37:25.532Z,25.40
2018-05-04T15:39:30.043Z,26.00
2018-05-04T15:41:34.451Z,25.60
2018-05-04T15:43:40.603Z,26.80
2018-05-04T15:45:45.028Z,26.80
2018-05-04T15:47:49.454Z,27.40
2018-05-04T15:49:53.728Z,27.70
2018-05-04T15:52:06.594Z,27.90
2018-05-04T15:54:11.775Z,27.80
2018-05-04T15:56:16.198Z,27.70
2018-05-04T15:58:20.941Z,27.40
2018-05-04T16:00:26.882Z,27.50
2018-05-04T16:02:31.350Z,27.50
2018-05-04T16:04:36.355Z,27.40
2018-05-04T16:06:40.550Z,26.70
2018-05-04T16:08:44.762Z,25.80
2018-05-04T16:10:49.218Z,25.00
2018-05-04T16:12:55.314Z,24.50
2018-05-04T16:14:59.742Z,24.50
2018-05-04T16:17:04.207Z,24.50
2018-05-04T16:19:09.594Z,22.40
2018-05-04T16:21:14.015Z,22.30
2018-05-04T16:23:18.518Z,22.20
2018-05-04T16:25:22.902Z,22.80
2018-05-04T16:27:27.339Z,22.80
2018-05-04T16:29:32.402Z,22.40
2018-05-04T16:31:36.843Z,23.30
2018-05-04T16:33:41.274Z,23.60
2018-05-04T16:35:46.606Z,23.50
2018-05-04T16:37:51.225Z,23.50
2018-05-04T16:39:56.418Z,23.10
2018-05-04T16:42:01.034Z,23.10
2018-05-04T16:44:05.452Z,22.90
2018-05-04T16:48:51.585Z,22.10
2018-05-04T16:50:56.778Z,23.30
2018-05-04T16:53:01.189Z,23.20
2018-05-04T16:55:05.659Z,22.70
2018-05-04T16:57:10.545Z,23.50
2018-05-04T16:59:14.734Z,23.00
2018-05-04T17:01:19.170Z,22.90
2018-05-04T17:03:23.355Z,23.70
2018-05-04T17:05:27.448Z,24.20
2018-05-04T17:07:31.863Z,23.50
2018-05-04T17:09:36.230Z,23.90
2018-05-04T17:11:40.646Z,24.40
2018-05-04T17:13:45.034Z,23.60
2018-05-04T17:15:49.480Z,23.50
2018-05-04T17:17:53.842Z,23.60
2018-05-04T17:19:59.131Z,23.40
2018-05-04T17:22:02.978Z,23.40
2018-05-04T17:24:07.743Z,23.60
2018-05-04T17:26:11.939Z,23.60
2018-05-04T17:28:16.151Z,23.60
2018-05-04T17:30:20.346Z,22.00
2018-05-04T17:32:25.865Z,22.00
2018-05-04T17:34:30.302Z,21.90
2018-05-04T17:36:35.482Z,22.00
2018-05-04T17:38:39.958Z,21.90
2018-05-04T17:40:45.159Z,22.90
2018-05-04T17:42:49.610Z,22.90
2018-05-04T17:44:54.804Z,22.20
2018-05-04T17:46:59.254Z,22.20
2018-05-04T17:49:03.875Z,22.00
2018-05-04T17:51:09.062Z,22.30
2018-05-04T17:53:13.711Z,22.30
2018-05-04T17:55:18.142Z,22.60
2018-05-04T17:57:22.578Z,22.60
2018-05-04T17:59:27.930Z,21.70
2018-05-04T18:01:32.350Z,21.60
2018-05-04T18:03:36.765Z,20.90
2018-05-04T18:05:41.366Z,20.90
2018-05-04T18:07:46.567Z,21.10
2018-05-04T18:09:51.013Z,21.10
2018-05-04T18:11:56.226Z,20.30
2018-05-04T18:14:02.173Z,19.50
2018-05-04T18:16:06.778Z,19.50
2018-05-04T18:18:11.209Z,19.70
2018-05-04T18:20:15.618Z,19.70
2018-05-04T18:22:20.043Z,19.80
2018-05-04T18:24:25.662Z,19.70
2018-05-04T18:26:30.098Z,19.70
2018-05-04T18:28:34.525Z,19.50
2018-05-04T18:30:40.450Z,18.70
2018-05-04T18:32:44.892Z,18.70
2018-05-04T18:34:49.310Z,18.40
2018-05-04T18:36:55.257Z,18.30
2018-05-04T18:39:00.002Z,18.30
2018-05-04T18:41:05.194Z,18.30
2018-05-04T18:43:09.623Z,18.20
2018-05-04T18:45:14.065Z,17.80
2018-05-04T18:47:19.315Z,17.00
2018-05-04T18:49:23.706Z,17.00
2018-05-04T18:51:28.144Z,16.70
2018-05-04T18:53:32.562Z,16.50
2018-05-04T18:55:37.844Z,16.20
2018-05-04T18:57:42.255Z,16.20
2018-05-04T18:59:46.898Z,16.00
2018-05-04T19:01:51.326Z,16.10
2018-05-04T19:03:55.794Z,16.10
2018-05-04T19:06:00.394Z,15.90
2018-05-04T19:08:05.408Z,15.60
2018-05-04T19:10:09.973Z,15.50
2018-05-04T19:12:14.410Z,15.50
2018-05-04T19:14:18.837Z,15.50
2018-05-04T19:16:23.032Z,15.60
2018-05-04T19:18:27.454Z,15.40
2018-05-04T19:20:31.947Z,15.10
2018-05-04T19:22:36.942Z,15.10
2018-05-04T19:24:42.166Z,15.00
2018-05-04T19:26:46.587Z,15.00
2018-05-04T19:28:51.026Z,15.10
2018-05-04T19:30:56.219Z,15.00
2018-05-04T19:33:00.875Z,14.90
2018-05-04T19:35:06.106Z,14.80
2018-05-04T19:37:11.297Z,14.70
2018-05-04T19:39:15.497Z,14.70
2018-05-04T19:41:20.025Z,14.70
2018-05-04T19:43:24.423Z,14.70
2018-05-04T19:45:28.867Z,14.60
2018-05-04T19:47:33.310Z,14.60
2018-05-04T19:49:38.535Z,14.50
2018-05-04T19:51:43.208Z,14.50
2018-05-04T19:53:47.837Z,14.50
2018-05-04T19:55:52.606Z,14.60
2018-05-04T19:57:57.038Z,14.60
2018-05-04T20:00:01.896Z,14.40
2018-05-04T20:02:06.530Z,14.40
2018-05-04T20:04:10.965Z,14.40
2018-05-04T20:06:15.407Z,14.30
2018-05-04T20:08:21.354Z,13.80
2018-05-04T20:10:25.826Z,13.80
2018-05-04T20:12:30.073Z,13.80
2018-05-04T20:14:34.711Z,13.60
2018-05-04T20:16:39.334Z,13.70
2018-05-04T20:18:43.778Z,13.70
2018-05-04T20:20:48.974Z,13.60
2018-05-04T20:22:53.469Z,13.60
2018-05-04T20:24:58.623Z,13.50
2018-05-04T20:27:03.075Z,13.40
2018-05-04T20:29:08.269Z,13.50
2018-05-04T20:31:12.694Z,13.40
2018-05-04T20:33:17.238Z,13.20
2018-05-04T20:35:21.885Z,12.90
2018-05-04T20:37:25.999Z,12.90
2018-05-04T20:39:30.183Z,13.00
2018-05-04T20:41:35.434Z,12.90
2018-05-04T20:43:40.032Z,12.90
2018-05-04T20:45:44.471Z,12.80
2018-05-04T20:47:49.869Z,12.80
2018-05-04T20:49:54.290Z,12.80
2018-05-04T20:51:58.740Z,13.00
2018-05-04T20:54:04.147Z,13.20
2018-05-04T20:56:08.637Z,13.20
2018-05-04T20:58:13.027Z,13.30
2018-05-04T21:00:17.239Z,13.30
2018-05-04T21:02:21.381Z,13.20
2018-05-04T21:04:25.838Z,12.90
2018-05-04T21:06:31.363Z,12.60
2018-05-04T21:08:35.790Z,12.60
2018-05-04T21:10:40.253Z,12.50
2018-05-04T21:12:44.698Z,12.50
2018-05-04T21:14:49.531Z,12.50
2018-05-04T21:16:53.962Z,12.40
2018-05-04T21:18:58.394Z,12.10
2018-05-04T21:21:03.582Z,12.00
2018-05-04T21:23:08.023Z,12.00
2018-05-04T21:25:12.462Z,12.10
2018-05-04T21:27:17.429Z,12.20
2018-05-04T21:29:21.630Z,12.10
2018-05-04T21:31:26.064Z,12.30
2018-05-04T21:33:30.493Z,12.30
2018-05-04T21:35:34.922Z,12.40
2018-05-04T21:37:39.361Z,12.40
2018-05-04T21:39:43.990Z,12.50
2018-05-04T21:41:49.178Z,12.60
2018-05-04T21:43:53.638Z,12.50
2018-05-04T21:45:58.066Z,12.60
2018-05-04T21:48:02.677Z,12.50
2018-05-04T21:50:07.178Z,12.50
2018-05-04T21:52:11.378Z,12.50
2018-05-04T21:54:15.805Z,12.50
2018-05-04T21:56:20.297Z,12.20
2018-05-04T21:58:24.818Z,12.20
2018-05-04T22:00:28.870Z,12.20
2018-05-04T22:02:34.060Z,12.10
2018-05-04T22:04:38.516Z,12.10
2018-05-04T22:06:43.142Z,12.10
2018-05-04T22:08:48.350Z,11.70
2018-05-04T22:10:52.799Z,11.70
2018-05-04T22:12:57.996Z,11.80
2018-05-04T22:15:02.239Z,11.80
2018-05-04T22:17:06.851Z,11.80
2018-05-04T22:19:11.274Z,11.80
2018-05-04T22:21:16.271Z,11.60
2018-05-04T22:23:20.678Z,11.50
2018-05-04T22:25:25.109Z,11.50
2018-05-04T22:27:29.558Z,11.50
2018-05-04T22:29:34.781Z,11.50
2018-05-04T22:31:39.405Z,11.50
2018-05-04T22:33:43.857Z,11.50
2018-05-04T22:35:48.047Z,11.60
2018-05-04T22:37:53.234Z,11.70
2018-05-04T22:39:57.440Z,11.70
2018-05-04T22:42:01.858Z,11.50
2018-05-04T22:44:06.281Z,11.60
2018-05-04T22:46:10.734Z,11.60
2018-05-04T22:48:15.210Z,11.50
2018-05-04T22:50:19.624Z,11.40
2018-05-04T22:52:24.027Z,11.30
2018-05-04T22:54:28.458Z,11.30
2018-05-04T22:56:32.895Z,11.20
2018-05-04T22:58:37.297Z,11.10
2018-05-04T23:00:41.738Z,10.70
2018-05-04T23:02:46.228Z,10.50
2018-05-04T23:04:50.882Z,10.60
2018-05-04T23:06:55.102Z,10.90
2018-05-04T23:09:00.299Z,10.80
2018-05-04T23:11:04.958Z,10.80
2018-05-04T23:13:09.401Z,10.80
2018-05-04T23:15:14.575Z,10.80
2018-05-04T23:17:19.182Z,10.80
2018-05-04T23:19:23.611Z,10.50
2018-05-04T23:21:28.246Z,10.40
2018-05-04T23:23:32.746Z,10.40
2018-05-04T23:25:37.132Z,10.20
2018-05-04T23:27:41.565Z,9.80
2018-05-04T23:29:45.759Z,9.70
2018-05-04T23:31:51.148Z,10.10
2018-05-04T23:33:55.570Z,10.10
2018-05-04T23:36:00.010Z,10.20
2018-05-04T23:38:05.210Z,10.00
2018-05-04T23:40:09.634Z,10.00
2018-05-04T23:42:14.066Z,10.20
2018-05-04T23:44:18.499Z,10.20
2018-05-04T23:46:23.704Z,10.40
2018-05-04T23:48:28.125Z,10.40
2018-05-04T23:50:32.554Z,10.30
2018-05-04T23:52:36.725Z,10.30
2018-05-04T23:54:40.887Z,10.20
2018-05-04T23:56:46.108Z,10.20
2018-05-04T23:58:51.070Z,10.20
